Time;durP1;ratioP1;P1;durP2;ratioP2;P2;SDS_P1;SDS_P2;PMS_P1;PMS_P2;Temp;Humidity;BMP_temperature;BMP_pressure;BME280_temperature;BME280_humidity;BME280_pressure;Samples;Min_cycle;Max_cycle;Signal;HPM_P1;HPM_P2
2023/04/21 00:00:55;;;;;;;12.80;7.20;;;;;;;11.25;72.92;94434.00;5103226;28;20188;-77
2023/04/21 00:03:22;;;;;;;10.23;7.35;;;;;;;11.22;72.71;94439.75;5110698;28;21235;-77
2023/04/21 00:05:50;;;;;;;12.37;5.93;;;;;;;11.25;72.62;94436.66;5093179;28;20188;-77
2023/04/21 00:08:17;;;;;;;9.50;6.23;;;;;;;11.11;72.40;94406.25;5091617;28;20620;-77
2023/04/21 00:10:43;;;;;;;8.90;5.20;;;;;;;11.27;72.11;94433.78;5097575;28;20560;-77
2023/04/21 00:13:09;;;;;;;10.23;6.60;;;;;;;11.25;72.07;94431.38;5112059;28;20185;-77
2023/04/21 00:15:35;;;;;;;8.30;5.80;;;;;;;11.06;72.18;94406.16;5092134;28;20722;-77
2023/04/21 00:18:00;;;;;;;8.03;5.80;;;;;;;11.17;72.29;94430.88;5104381;28;20173;-77
2023/04/21 00:20:26;;;;;;;9.33;6.10;;;;;;;11.10;72.69;94425.72;5096509;28;20197;-77
2023/04/21 00:22:58;;;;;;;8.93;5.80;;;;;;;11.06;72.77;94429.84;5099606;28;20239;-78
2023/04/21 00:25:24;;;;;;;9.63;5.87;;;;;;;11.02;72.80;94427.88;5091584;28;20189;-78
2023/04/21 00:27:50;;;;;;;13.13;7.55;;;;;;;10.94;73.45;94429.00;5104408;28;20453;-77
2023/04/21 00:30:16;;;;;;;12.23;7.00;;;;;;;10.92;73.09;94434.47;5103002;28;20192;-77
2023/04/21 00:32:41;;;;;;;11.70;6.13;;;;;;;10.73;72.92;94392.59;5103001;28;20185;-77
2023/04/21 00:35:08;;;;;;;13.13;7.17;;;;;;;10.87;73.17;94417.75;5098675;28;20233;-77
2023/04/21 00:37:33;;;;;;;13.00;7.17;;;;;;;10.87;73.44;94429.09;5100547;28;20524;-76
2023/04/21 00:39:59;;;;;;;23.27;15.00;;;;;;;10.72;74.45;94433.94;5089705;28;20447;-76
2023/04/21 00:42:24;;;;;;;17.73;10.30;;;;;;;10.76;74.79;94435.09;5091344;28;20514;-76
2023/04/21 00:44:51;;;;;;;10.60;6.93;;;;;;;10.75;74.40;94433.50;5104085;28;20531;-77
2023/04/21 00:47:16;;;;;;;11.17;6.00;;;;;;;10.75;73.99;94438.75;5102883;28;20177;-76
2023/04/21 00:49:42;;;;;;;8.53;6.37;;;;;;;10.72;73.83;94426.06;5103790;28;20184;-76
2023/04/21 00:52:08;;;;;;;8.87;6.83;;;;;;;10.68;73.79;94427.50;5100254;28;20271;-76
2023/04/21 00:54:37;;;;;;;13.53;6.47;;;;;;;10.65;73.95;94422.69;5094893;28;20673;-77
2023/04/21 00:57:03;;;;;;;12.40;6.60;;;;;;;10.56;74.25;94411.66;5104877;28;20209;-76
2023/04/21 00:59:29;;;;;;;10.03;6.30;;;;;;;10.57;74.25;94415.88;5091392;28;20586;-77
2023/04/21 01:01:55;;;;;;;12.40;6.07;;;;;;;10.54;74.34;94407.66;5101883;28;20181;-77
2023/04/21 01:04:20;;;;;;;11.87;6.90;;;;;;;10.51;74.29;94415.97;5093708;28;20412;-77
2023/04/21 01:06:46;;;;;;;8.97;6.30;;;;;;;10.50;74.19;94415.16;5104021;28;20188;-77
2023/04/21 01:09:12;;;;;;;10.67;6.33;;;;;;;10.41;74.25;94395.44;5104150;28;20260;-77
2023/04/21 01:11:37;;;;;;;8.50;5.90;;;;;;;10.51;73.83;94413.34;5103873;28;20177;-77
2023/04/21 01:14:04;;;;;;;10.18;7.50;;;;;;;10.42;74.19;94415.47;5098028;28;20429;-77
2023/04/21 01:16:32;;;;;;;10.73;7.07;;;;;;;10.49;74.02;94415.38;5115216;28;20248;-77
2023/04/21 01:18:58;;;;;;;13.87;8.07;;;;;;;10.61;73.47;94418.91;5105471;28;20225;-77
2023/04/21 01:21:25;;;;;;;11.80;7.20;;;;;;;10.50;73.82;94415.16;5097872;28;20262;-77
2023/04/21 01:23:51;;;;;;;11.47;7.00;;;;;;;10.44;74.21;94402.09;5105969;27;20221;-77
2023/04/21 01:26:18;;;;;;;7.93;5.67;;;;;;;10.41;74.01;94405.97;5106042;28;20169;-77
2023/04/21 01:28:43;;;;;;;10.13;6.60;;;;;;;10.51;73.88;94408.09;5105890;27;20181;-77
2023/04/21 01:31:09;;;;;;;12.37;6.60;;;;;;;10.51;74.28;94410.72;5114850;28;20169;-77
2023/04/21 01:33:34;;;;;;;9.73;5.83;;;;;;;10.49;74.36;94407.50;5100075;28;20178;-77
2023/04/21 01:36:00;;;;;;;9.10;5.87;;;;;;;10.54;74.07;94405.81;5103703;28;20189;-77
2023/04/21 01:38:26;;;;;;;9.53;6.07;;;;;;;10.55;74.33;94412.66;5097667;28;20174;-77
2023/04/21 01:40:53;;;;;;;9.57;5.73;;;;;;;10.54;74.02;94405.03;5103677;28;20207;-77
2023/04/21 01:43:21;;;;;;;7.50;5.50;;;;;;;10.44;74.10;94388.94;5100901;28;20173;-77
2023/04/21 01:45:47;;;;;;;6.73;5.20;;;;;;;10.59;73.85;94405.16;5114329;28;20169;-76
2023/04/21 01:48:13;;;;;;;10.43;5.97;;;;;;;10.48;73.72;94387.47;5113936;28;20648;-76
2023/04/21 01:50:38;;;;;;;9.30;5.53;;;;;;;10.59;73.56;94400.69;5100425;28;20258;-76
2023/04/21 01:53:04;;;;;;;8.47;6.00;;;;;;;10.59;73.74;94402.50;5110059;28;20176;-76
2023/04/21 01:55:30;;;;;;;8.27;5.43;;;;;;;10.59;73.58;94403.31;5113783;28;20175;-76
2023/04/21 01:57:58;;;;;;;7.93;5.57;;;;;;;10.57;73.65;94408.00;5102491;28;20258;-76
2023/04/21 02:00:23;;;;;;;9.27;5.90;;;;;;;10.54;73.55;94399.75;5107980;28;20702;-77
2023/04/21 02:02:49;;;;;;;8.40;5.17;;;;;;;10.54;73.59;94412.91;5106434;28;20264;-76
2023/04/21 02:05:14;;;;;;;9.83;5.63;;;;;;;10.51;73.79;94408.88;5102730;28;20635;-77
2023/04/21 02:07:39;;;;;;;9.17;5.90;;;;;;;10.45;73.54;94408.97;5093620;28;20205;-76
2023/04/21 02:10:05;;;;;;;11.23;6.00;;;;;;;10.39;74.45;94404.56;5093625;28;20252;-77
2023/04/21 02:12:31;;;;;;;12.97;5.90;;;;;;;10.41;74.16;94405.16;5110428;28;20192;-76
2023/04/21 02:14:56;;;;;;;8.73;5.93;;;;;;;10.39;74.28;94410.63;5113901;28;20181;-77
2023/04/21 02:17:21;;;;;;;8.70;6.07;;;;;;;10.35;74.36;94403.41;5110408;28;20947;-76
2023/04/21 02:19:47;;;;;;;10.63;6.07;;;;;;;10.30;74.69;94404.06;5099103;28;20193;-77
2023/04/21 02:22:12;;;;;;;11.13;6.73;;;;;;;10.12;75.06;94404.84;5096220;28;20419;-76
2023/04/21 02:24:39;;;;;;;8.10;5.63;;;;;;;10.10;75.45;94400.84;5093470;28;20185;-76
2023/04/21 02:27:05;;;;;;;10.57;6.53;;;;;;;10.15;75.37;94406.22;5106003;28;20204;-76
2023/04/21 02:29:30;;;;;;;9.60;5.97;;;;;;;10.02;75.40;94383.53;5104590;28;20233;-77
2023/04/21 02:31:56;;;;;;;10.83;6.00;;;;;;;10.04;75.31;94378.84;5113455;28;20177;-77
2023/04/21 02:34:21;;;;;;;9.80;5.43;;;;;;;10.08;75.39;94377.38;5113219;28;20184;-76
2023/04/21 02:36:47;;;;;;;10.43;6.63;;;;;;;10.07;75.66;94373.16;5100645;28;20335;-77
2023/04/21 02:39:12;;;;;;;9.63;5.53;;;;;;;10.10;75.73;94375.34;5099229;28;20656;-76
2023/04/21 02:41:38;;;;;;;10.53;6.20;;;;;;;10.34;75.78;94407.06;5113603;28;20180;-76
2023/04/21 02:44:04;;;;;;;10.17;6.20;;;;;;;10.31;75.83;94378.56;5102695;28;20204;-76
2023/04/21 02:46:29;;;;;;;9.00;6.30;;;;;;;10.49;75.59;94408.28;5097007;28;20267;-76
2023/04/21 02:48:55;;;;;;;10.47;6.50;;;;;;;10.56;75.31;94403.75;5107195;28;20169;-76
2023/04/21 02:51:20;;;;;;;11.80;7.00;;;;;;;10.62;75.52;94403.91;5096771;28;20223;-76
2023/04/21 02:53:46;;;;;;;8.57;5.87;;;;;;;10.70;75.02;94408.88;5103369;28;20204;-76
2023/04/21 02:56:11;;;;;;;9.10;6.40;;;;;;;10.78;75.13;94417.25;5112960;28;20173;-76
2023/04/21 02:58:37;;;;;;;7.60;6.13;;;;;;;10.83;75.23;94413.94;5104528;28;20217;-77
2023/04/21 03:01:04;;;;;;;9.50;7.00;;;;;;;10.78;75.59;94416.44;5102189;28;20418;-76
2023/04/21 03:03:30;;;;;;;12.17;6.80;;;;;;;10.81;75.56;94411.53;5105828;28;20316;-76
2023/04/21 03:06:01;;;;;;;9.20;6.70;;;;;;;10.88;75.93;94409.63;5110521;28;20233;-76
2023/04/21 03:08:26;;;;;;;8.77;5.60;;;;;;;10.94;75.99;94406.09;5103426;28;20177;-76
2023/04/21 03:10:52;;;;;;;12.67;8.00;;;;;;;10.94;75.68;94408.72;5100354;28;20833;-76
2023/04/21 03:13:17;;;;;;;9.63;6.73;;;;;;;11.06;75.49;94414.03;5105523;28;20621;-76
2023/04/21 03:15:43;;;;;;;10.83;7.37;;;;;;;11.08;75.67;94405.91;5103681;28;20638;-76
2023/04/21 03:18:09;;;;;;;12.57;7.60;;;;;;;11.15;75.28;94409.25;5095833;28;20178;-77
2023/04/21 03:20:34;;;;;;;14.73;8.03;;;;;;;11.22;74.80;94417.88;5098843;28;20247;-76
2023/04/21 03:22:59;;;;;;;13.87;6.83;;;;;;;11.26;74.12;94425.09;5091952;28;20196;-76
2023/04/21 03:25:28;;;;;;;12.17;7.00;;;;;;;11.26;73.63;94409.28;5090848;28;20427;-76
2023/04/21 03:27:54;;;;;;;9.20;6.47;;;;;;;11.34;73.27;94414.22;5107263;28;20242;-76
2023/04/21 03:30:20;;;;;;;7.93;5.70;;;;;;;11.33;73.28;94417.06;5098535;28;20287;-76
2023/04/21 03:32:46;;;;;;;8.70;5.90;;;;;;;11.33;73.31;94423.16;5095745;28;20166;-77
2023/04/21 03:35:11;;;;;;;8.80;6.07;;;;;;;11.32;73.22;94421.56;5105258;28;20237;-77
2023/04/21 03:37:37;;;;;;;9.23;5.80;;;;;;;11.32;73.43;94424.19;5108631;28;20607;-78
2023/04/21 03:40:06;;;;;;;9.20;6.13;;;;;;;11.34;73.46;94429.22;5102772;28;20224;-77
2023/04/21 03:42:31;;;;;;;10.23;5.77;;;;;;;11.40;73.26;94435.44;5108638;28;20216;-75
2023/04/21 03:45:03;;;;;;;11.27;7.07;;;;;;;11.25;73.05;94398.94;5106576;28;20252;-77
2023/04/21 03:47:29;;;;;;;8.90;6.37;;;;;;;11.42;72.84;94433.34;5110677;28;20173;-76
2023/04/21 03:49:55;;;;;;;10.33;6.87;;;;;;;11.26;72.79;94427.72;5110300;28;20406;-76
2023/04/21 03:52:20;;;;;;;9.73;6.87;;;;;;;11.26;73.00;94430.34;5106822;28;20260;-76
2023/04/21 03:54:45;;;;;;;15.10;6.40;;;;;;;11.20;73.22;94417.28;5107894;28;20169;-76
2023/04/21 03:57:11;;;;;;;10.57;6.60;;;;;;;11.27;73.01;94441.69;5091680;28;20185;-76
2023/04/21 03:59:36;;;;;;;12.13;6.33;;;;;;;11.32;73.40;94440.00;5108745;28;20232;-77
2023/04/21 04:02:02;;;;;;;9.20;6.60;;;;;;;11.40;73.82;94435.44;5105309;28;20173;-76
2023/04/21 04:04:27;;;;;;;10.07;6.40;;;;;;;11.45;73.79;94440.81;5111803;28;20207;-76
2023/04/21 04:06:52;;;;;;;8.67;6.47;;;;;;;11.53;73.96;94446.56;5110672;28;20184;-76
2023/04/21 04:09:18;;;;;;;15.33;6.77;;;;;;;11.58;73.46;94444.06;5103463;28;20169;-76
2023/04/21 04:11:43;;;;;;;20.43;7.63;;;;;;;11.62;73.05;94445.22;5104536;28;20268;-76
2023/04/21 04:14:09;;;;;;;11.60;7.50;;;;;;;11.76;72.81;94453.75;5100266;28;20257;-74
2023/04/21 04:16:34;;;;;;;9.43;6.60;;;;;;;11.74;72.07;94458.41;5100925;28;20204;-76
2023/04/21 04:19:00;;;;;;;12.20;7.10;;;;;;;11.81;72.97;94460.97;5107640;28;20205;-77
2023/04/21 04:21:27;;;;;;;12.90;8.03;;;;;;;11.82;72.51;94457.31;5092234;28;20166;-75
2023/04/21 04:23:52;;;;;;;13.53;7.70;;;;;;;11.90;71.91;94464.88;5099702;28;20181;-77
2023/04/21 04:26:18;;;;;;;12.23;7.10;;;;;;;11.89;71.78;94463.28;5093955;28;20169;-76
2023/04/21 04:28:44;;;;;;;10.90;7.63;;;;;;;11.91;72.01;94466.50;5111410;28;20298;-76
2023/04/21 04:31:10;;;;;;;10.97;7.53;;;;;;;11.95;72.22;94463.16;5111739;28;20546;-75
2023/04/21 04:33:35;;;;;;;10.97;7.63;;;;;;;12.00;72.22;94470.41;5101926;28;20177;-75
2023/04/21 04:36:00;;;;;;;14.80;7.87;;;;;;;11.88;72.16;94453.75;5097819;28;20166;-75
2023/04/21 04:38:27;;;;;;;12.83;8.00;;;;;;;12.06;72.20;94461.56;5114295;28;20982;-75
2023/04/21 04:41:00;;;;;;;13.40;7.20;;;;;;;12.15;72.04;94476.03;5114145;28;20567;-75
2023/04/21 04:43:26;;;;;;;20.17;8.80;;;;;;;12.04;71.73;94453.88;5112804;28;20254;-74
2023/04/21 04:45:52;;;;;;;17.60;8.27;;;;;;;12.22;71.63;94481.19;5104753;28;20271;-75
2023/04/21 04:48:17;;;;;;;21.03;8.47;;;;;;;12.23;71.90;94473.03;5094047;28;20560;-74
2023/04/21 04:50:43;;;;;;;12.27;7.23;;;;;;;12.32;70.42;94479.56;5094264;28;20571;-74
2023/04/21 04:53:09;;;;;;;11.80;7.37;;;;;;;12.21;70.21;94482.19;5112968;28;20181;-74
2023/04/21 04:55:34;;;;;;;12.40;6.70;;;;;;;12.23;70.03;94485.41;5110771;28;20177;-74
2023/04/21 04:58:00;;;;;;;12.30;7.33;;;;;;;12.24;70.62;94479.13;5093958;28;20650;-74
2023/04/21 05:00:27;;;;;;;11.50;6.77;;;;;;;12.18;70.15;94472.94;5093861;28;20682;-75
2023/04/21 05:02:53;;;;;;;8.90;6.57;;;;;;;12.23;71.09;94486.22;5094020;28;20189;-74
2023/04/21 05:05:19;;;;;;;11.13;7.43;;;;;;;12.27;71.33;94487.38;5093896;28;20177;-74
2023/04/21 05:07:44;;;;;;;22.13;14.23;;;;;;;12.39;71.53;94482.88;5094167;28;20177;-74
2023/04/21 05:10:10;;;;;;;19.00;13.47;;;;;;;12.45;71.17;94486.47;5098628;28;20170;-74
2023/04/21 05:12:35;;;;;;;33.60;14.73;;;;;;;12.55;70.68;94491.13;5113468;28;20255;-75
2023/04/21 05:15:01;;;;;;;18.83;11.47;;;;;;;12.56;70.75;94488.25;5114250;28;20231;-75
2023/04/21 05:17:27;;;;;;;16.53;10.17;;;;;;;12.69;70.98;94484.59;5108324;28;20303;-75
2023/04/21 05:19:52;;;;;;;14.17;8.57;;;;;;;12.68;71.46;94475.06;5093694;28;20197;-74
2023/04/21 05:22:18;;;;;;;10.33;7.17;;;;;;;12.77;71.25;94479.75;5104975;28;20252;-76
2023/04/21 05:24:43;;;;;;;13.17;7.30;;;;;;;12.87;70.52;94479.16;5114225;28;20173;-74
2023/04/21 05:27:09;;;;;;;12.53;6.73;;;;;;;12.92;70.00;94471.31;5098762;28;20166;-75
2023/04/21 05:29:35;;;;;;;13.00;7.90;;;;;;;13.08;69.96;94488.25;5111644;28;20197;-75
2023/04/21 05:32:00;;;;;;;9.03;6.03;;;;;;;13.01;69.86;94458.53;5090324;28;20178;-75
2023/04/21 05:34:26;;;;;;;11.20;8.43;;;;;;;13.27;69.79;94492.38;5093577;28;20186;-74
2023/04/21 05:36:51;;;;;;;9.90;6.40;;;;;;;13.28;69.98;94485.25;5093119;28;20264;-74
2023/04/21 05:39:17;;;;;;;10.20;5.83;;;;;;;13.46;69.14;94492.97;5092992;28;20201;-74
2023/04/21 05:41:42;;;;;;;11.63;6.67;;;;;;;13.60;68.60;94489.78;5093061;28;20200;-74
2023/04/21 05:44:08;;;;;;;9.17;6.17;;;;;;;13.70;67.77;94493.66;5097444;28;20173;-74
2023/04/21 05:46:33;;;;;;;13.33;5.97;;;;;;;14.05;67.77;94498.72;5113705;28;20706;-74
2023/04/21 05:49:01;;;;;;;10.80;6.10;;;;;;;14.58;66.32;94493.72;5112978;28;20643;-75
2023/04/21 05:51:26;;;;;;;10.97;6.37;;;;;;;15.94;63.92;94498.19;5113430;28;20678;-74
2023/04/21 05:53:52;;;;;;;9.73;6.40;;;;;;;17.28;58.91;94493.19;5099553;28;20212;-75
2023/04/21 05:56:17;;;;;;;11.52;6.88;;;;;;;18.52;55.36;94506.41;5092785;28;20178;-74
2023/04/21 05:58:43;;;;;;;13.05;6.03;;;;;;;19.86;52.62;94501.97;5092635;28;20320;-75
2023/04/21 06:01:08;;;;;;;8.45;4.95;;;;;;;21.58;48.41;94500.34;5092824;28;20185;-75
2023/04/21 06:03:34;;;;;;;6.63;4.88;;;;;;;23.24;44.31;94496.06;5092666;28;20212;-75
2023/04/21 06:06:01;;;;;;;8.57;5.70;;;;;;;23.30;40.86;94496.75;5108495;28;20169;-75
2023/04/21 06:08:26;;;;;;;6.40;4.80;;;;;;;23.92;41.85;94495.22;5093234;28;20629;-76
2023/04/21 06:10:52;;;;;;;9.00;5.07;;;;;;;24.38;40.77;94470.78;5096428;28;20207;-75
2023/04/21 06:13:17;;;;;;;9.23;7.03;;;;;;;25.01;40.07;94460.81;5099312;27;20174;-75
2023/04/21 06:15:43;;;;;;;14.05;7.45;;;;;;;25.72;38.57;94486.59;5092893;28;20209;-76
2023/04/21 06:18:08;;;;;;;10.70;6.60;;;;;;;26.03;36.85;94481.09;5110014;28;20173;-78
2023/04/21 06:20:34;;;;;;;8.48;5.47;;;;;;;26.22;36.53;94483.44;5093280;28;20739;-77
2023/04/21 06:23:00;;;;;;;11.55;5.50;;;;;;;25.53;37.19;94489.53;5092953;28;20185;-76
2023/04/21 06:25:26;;;;;;;9.85;4.72;;;;;;;24.90;39.05;94491.81;5092947;28;20166;-76
2023/04/21 06:27:51;;;;;;;9.05;4.85;;;;;;;24.05;40.66;94478.22;5102399;28;20176;-76
2023/04/21 06:30:17;;;;;;;9.30;5.15;;;;;;;23.64;43.20;94481.03;5110322;28;20162;-77
2023/04/21 06:32:44;;;;;;;12.02;5.50;;;;;;;23.20;43.38;94478.16;5098370;28;20173;-77
2023/04/21 06:35:10;;;;;;;13.10;5.18;;;;;;;22.44;42.78;94468.78;5113577;28;20177;-77
2023/04/21 06:37:35;;;;;;;8.73;5.95;;;;;;;21.73;45.86;94459.94;5103196;28;20563;-76
2023/04/21 06:40:01;;;;;;;16.17;6.25;;;;;;;21.43;45.57;94473.75;5096130;28;20283;-75
2023/04/21 06:42:26;;;;;;;8.52;5.43;;;;;;;20.90;46.93;94473.03;5112702;28;20567;-74
2023/04/21 06:44:51;;;;;;;10.57;6.55;;;;;;;20.02;47.65;94466.03;5112767;28;20282;-75
2023/04/21 06:47:17;;;;;;;12.02;6.40;;;;;;;19.28;49.52;94464.34;5112432;28;20181;-75
2023/04/21 06:49:42;;;;;;;8.48;5.40;;;;;;;18.93;50.11;94462.63;5113137;28;20256;-77
2023/04/21 06:52:08;;;;;;;9.18;6.22;;;;;;;18.70;52.45;94464.00;5113308;28;20938;-76
2023/04/21 06:54:33;;;;;;;12.57;6.82;;;;;;;18.50;52.13;94455.22;5113004;28;20177;-76
2023/04/21 06:56:59;;;;;;;10.40;5.90;;;;;;;18.50;54.10;94457.91;5113188;28;20674;-77
2023/04/21 06:59:24;;;;;;;8.88;5.90;;;;;;;18.36;53.65;94458.44;5096415;28;20249;-76
2023/04/21 07:01:53;;;;;;;15.32;5.90;;;;;;;17.85;52.79;94435.56;5092595;28;20177;-76
2023/04/21 07:04:18;;;;;;;7.90;4.72;;;;;;;17.77;54.71;94452.06;5092425;28;20235;-76
2023/04/21 07:06:44;;;;;;;13.15;5.47;;;;;;;18.16;56.06;94447.81;5101758;28;20219;-76
2023/04/21 07:09:09;;;;;;;8.00;5.20;;;;;;;18.45;54.87;94456.03;5092392;28;20620;-76
2023/04/21 07:11:35;;;;;;;9.05;5.05;;;;;;;18.86;53.53;94451.41;5092510;28;20186;-76
2023/04/21 07:14:01;;;;;;;7.18;4.88;;;;;;;19.37;54.11;94454.66;5091558;28;20173;-75
2023/04/21 07:16:27;;;;;;;11.20;5.28;;;;;;;19.82;53.52;94453.63;5095219;28;20184;-76
2023/04/21 07:18:53;;;;;;;7.32;4.72;;;;;;;20.53;51.77;94461.09;5112287;28;20985;-75
2023/04/21 07:21:18;;;;;;;7.47;5.22;;;;;;;20.90;51.69;94460.44;5111930;28;20260;-75
2023/04/21 07:23:43;;;;;;;7.78;4.90;;;;;;;20.00;47.51;94440.66;5110954;28;20165;-75
2023/04/21 07:26:09;;;;;;;9.13;5.80;;;;;;;18.80;50.96;94457.84;5111637;28;20264;-75
2023/04/21 07:28:34;;;;;;;13.10;5.82;;;;;;;17.68;53.24;94451.78;5111321;28;20197;-75
2023/04/21 07:31:00;;;;;;;6.78;5.30;;;;;;;17.29;54.81;94433.59;5100855;28;20273;-75
2023/04/21 07:33:25;;;;;;;8.93;4.90;;;;;;;17.55;57.14;94444.28;5095071;28;20176;-75
2023/04/21 07:35:50;;;;;;;9.27;4.72;;;;;;;18.15;58.94;94448.09;5111115;28;20161;-76
2023/04/21 07:38:16;;;;;;;7.20;4.32;;;;;;;18.55;55.20;94449.88;5111002;28;20177;-76
2023/04/21 07:40:41;;;;;;;8.13;4.30;;;;;;;18.61;52.82;94446.16;5110936;28;20197;-75
2023/04/21 07:43:07;;;;;;;8.95;4.40;;;;;;;19.07;55.38;94452.94;5110911;28;20165;-75
2023/04/21 07:45:32;;;;;;;4.97;4.20;;;;;;;19.83;52.43;94457.09;5110811;28;20173;-75
2023/04/21 07:47:58;;;;;;;10.52;4.57;;;;;;;20.28;51.29;94459.41;5102255;28;20165;-75
2023/04/21 07:50:24;;;;;;;7.57;4.28;;;;;;;20.16;49.75;94434.13;5111559;28;20263;-75
2023/04/21 07:52:49;;;;;;;8.50;3.83;;;;;;;20.15;49.17;94461.94;5100143;28;20651;-75
2023/04/21 07:55:15;;;;;;;8.10;3.90;;;;;;;19.85;49.59;94453.06;5091253;28;20225;-75
2023/04/21 07:57:40;;;;;;;5.88;3.72;;;;;;;19.72;51.95;94451.00;5091339;28;20287;-75
2023/04/21 08:00:08;;;;;;;7.88;4.90;;;;;;;19.64;50.98;94464.16;5091108;28;20622;-75
2023/04/21 08:02:33;;;;;;;9.10;4.50;;;;;;;19.39;51.20;94457.84;5091342;28;20180;-75
2023/04/21 08:04:59;;;;;;;6.28;4.68;;;;;;;19.28;51.24;94450.19;5091545;28;20173;-75
2023/04/21 08:07:24;;;;;;;9.52;5.05;;;;;;;19.01;51.64;94462.06;5091499;28;20181;-75
2023/04/21 08:09:50;;;;;;;13.20;5.45;;;;;;;18.89;52.93;94464.22;5100318;28;20180;-76
2023/04/21 08:12:15;;;;;;;16.40;4.85;;;;;;;18.63;51.94;94438.69;5109798;28;20247;-75
2023/04/21 08:14:41;;;;;;;10.13;4.97;;;;;;;18.56;53.52;94432.81;5111522;28;20555;-75
2023/04/21 08:17:06;;;;;;;8.98;5.63;;;;;;;18.61;52.56;94456.81;5104132;28;20210;-75
2023/04/21 08:19:32;;;;;;;9.57;4.97;;;;;;;18.64;54.00;94450.97;5090855;28;20292;-75
2023/04/21 08:21:57;;;;;;;11.70;5.10;;;;;;;18.77;54.79;94450.38;5090854;28;20185;-75
2023/04/21 08:24:23;;;;;;;6.85;4.10;;;;;;;18.88;53.03;94445.81;5090855;28;20178;-75
2023/04/21 08:26:50;;;;;;;5.07;3.63;;;;;;;18.80;51.67;94449.84;5098372;28;20175;-76
2023/04/21 08:29:15;;;;;;;13.15;4.30;;;;;;;18.77;52.59;94442.38;5110644;28;20709;-76
2023/04/21 08:31:41;;;;;;;6.85;4.15;;;;;;;18.90;53.70;94443.69;5093876;28;20177;-75
2023/04/21 08:34:06;;;;;;;6.15;4.15;;;;;;;18.87;52.67;94434.34;5102315;28;20177;-75
2023/04/21 08:36:32;;;;;;;7.90;4.50;;;;;;;19.36;54.72;94453.09;5103721;28;20666;-75
2023/04/21 08:38:58;;;;;;;6.50;3.83;;;;;;;19.55;51.89;94455.94;5109436;28;20204;-75
2023/04/21 08:41:25;;;;;;;9.45;4.50;;;;;;;19.44;51.20;94454.38;5099087;28;20186;-75
2023/04/21 08:43:51;;;;;;;7.25;4.47;;;;;;;19.29;51.61;94436.56;5090891;28;20260;-75
2023/04/21 08:46:17;;;;;;;7.55;3.90;;;;;;;19.45;50.97;94451.44;5090949;28;20261;-76
2023/04/21 08:48:45;;;;;;;7.40;4.35;;;;;;;19.56;51.72;94444.19;5101099;28;20681;-75
2023/04/21 08:51:16;;;;;;;8.43;4.30;;;;;;;20.00;53.11;94444.13;5098388;28;20678;-75
2023/04/21 08:53:42;;;;;;;8.05;4.78;;;;;;;20.19;49.71;94438.91;5100105;28;20178;-75
2023/04/21 08:56:08;;;;;;;7.50;4.25;;;;;;;20.48;51.95;94444.31;5099873;28;20190;-75
2023/04/21 08:58:33;;;;;;;5.55;3.90;;;;;;;20.16;49.78;94439.47;5099429;28;20213;-75
2023/04/21 09:00:58;;;;;;;8.10;3.83;;;;;;;20.37;50.76;94430.22;5090777;28;20636;-75
2023/04/21 09:03:26;;;;;;;9.73;3.60;;;;;;;20.48;48.82;94429.06;5097666;28;20646;-75
2023/04/21 09:05:59;;;;;;;4.70;3.03;;;;;;;20.63;48.54;94428.09;5092407;28;20193;-75
2023/04/21 09:08:26;;;;;;;8.65;3.53;;;;;;;20.80;48.32;94424.97;5090417;28;20553;-75
2023/04/21 09:10:51;;;;;;;12.73;4.07;;;;;;;20.98;49.02;94424.22;5097046;28;20245;-75
2023/04/21 09:13:18;;;;;;;4.47;3.70;;;;;;;21.27;48.64;94419.59;5102601;28;20260;-75
2023/04/21 09:15:48;;;;;;;9.18;3.22;;;;;;;21.40;47.67;94420.75;5110866;28;20205;-75
2023/04/21 09:18:19;;;;;;;6.03;3.47;;;;;;;21.19;45.54;94409.50;5110671;28;20173;-75
2023/04/21 09:20:46;;;;;;;5.90;3.80;;;;;;;21.03;48.21;94411.56;5110659;28;20192;-75
2023/04/21 09:23:12;;;;;;;6.70;3.47;;;;;;;20.94;47.27;94413.28;5112391;28;20169;-75
2023/04/21 09:25:42;;;;;;;12.18;3.78;;;;;;;20.76;49.02;94386.50;5114416;28;20165;-75
2023/04/21 09:28:09;;;;;;;5.97;3.88;;;;;;;21.02;50.15;94398.47;5114319;28;20654;-75
2023/04/21 09:30:36;;;;;;;4.72;4.03;;;;;;;21.06;46.24;94380.75;5104811;28;20654;-75
2023/04/21 09:33:01;;;;;;;4.13;3.17;;;;;;;21.39;47.33;94403.09;5105545;28;20169;-75
2023/04/21 09:35:35;;;;;;;4.47;3.72;;;;;;;21.56;48.87;94402.59;5099975;28;20226;-75
2023/04/21 09:38:03;;;;;;;4.80;3.13;;;;;;;21.71;45.88;94392.44;5102264;28;20177;-75
2023/04/21 09:40:29;;;;;;;6.22;3.65;;;;;;;21.36;47.67;94393.75;5113939;28;20697;-75
2023/04/21 09:42:55;;;;;;;8.35;3.70;;;;;;;21.13;45.99;94401.81;5100877;28;20260;-75
2023/04/21 09:45:25;;;;;;;8.27;4.10;;;;;;;20.90;46.54;94403.44;5100216;28;20252;-75
2023/04/21 09:47:55;;;;;;;7.20;3.95;;;;;;;20.61;46.55;94393.59;5114326;28;20207;-75
2023/04/21 09:50:22;;;;;;;8.50;3.35;;;;;;;20.32;46.00;94398.16;5101560;28;20169;-75
2023/04/21 09:52:50;;;;;;;6.55;3.17;;;;;;;19.91;45.58;94376.34;5093390;28;20223;-75
2023/04/21 09:55:17;;;;;;;5.60;3.20;;;;;;;19.65;46.75;94370.41;5101738;28;20169;-75
2023/04/21 09:57:47;;;;;;;7.45;3.63;;;;;;;19.56;46.42;94382.75;5113676;28;20272;-76
2023/04/21 10:00:13;;;;;;;8.00;3.75;;;;;;;19.30;49.25;94389.31;5108939;28;20256;-76
2023/04/21 10:02:46;;;;;;;7.00;3.90;;;;;;;19.28;48.88;94381.59;5100420;28;20252;-76
2023/04/21 10:05:12;;;;;;;5.22;3.90;;;;;;;19.14;47.63;94385.94;5102855;28;20588;-76
2023/04/21 10:07:38;;;;;;;7.07;3.15;;;;;;;19.01;46.18;94363.34;5102236;28;20230;-76
2023/04/21 10:10:11;;;;;;;8.32;3.40;;;;;;;19.21;45.84;94376.53;5099380;28;20710;-76
2023/04/21 10:12:37;;;;;;;9.68;4.18;;;;;;;19.29;49.06;94390.38;5102845;28;20597;-76
2023/04/21 10:15:26;;;;;;;6.53;4.20;;;;;;;19.18;48.48;94362.97;5099749;28;20231;-76
2023/04/21 10:17:51;;;;;;;14.25;4.30;;;;;;;19.15;49.85;94377.66;5096832;28;20189;-76
2023/04/21 10:20:17;;;;;;;6.75;4.47;;;;;;;19.07;49.52;94378.25;5099885;28;20181;-76
2023/04/21 10:22:42;;;;;;;7.18;3.65;;;;;;;18.94;49.45;94378.06;5108177;28;20169;-75
2023/04/21 10:25:08;;;;;;;9.80;4.00;;;;;;;18.62;50.74;94373.91;5107344;28;20162;-76
2023/04/21 10:27:42;;;;;;;8.48;4.53;;;;;;;18.40;50.82;94374.22;5092890;28;20177;-76
2023/04/21 10:30:22;;;;;;;9.90;4.57;;;;;;;18.35;51.56;94373.41;5092537;28;20174;-75
2023/04/21 10:32:48;;;;;;;6.82;3.83;;;;;;;18.37;52.99;94371.28;5092576;28;20505;-76
2023/04/21 10:35:21;;;;;;;5.32;4.00;;;;;;;18.50;52.07;94372.59;5092646;28;20252;-75
2023/04/21 10:37:49;;;;;;;5.18;4.03;;;;;;;18.63;51.45;94377.38;5092722;28;20213;-75
2023/04/21 10:40:29;;;;;;;9.23;4.15;;;;;;;18.44;51.43;94375.25;5092521;28;20564;-76
2023/04/21 10:42:55;;;;;;;6.50;4.00;;;;;;;18.47;50.96;94368.59;5092898;28;20177;-76
2023/04/21 10:45:24;;;;;;;8.27;4.55;;;;;;;18.48;52.63;94370.19;5103665;28;20237;-76
2023/04/21 10:47:52;;;;;;;10.20;4.53;;;;;;;18.56;51.95;94372.31;5112916;28;20207;-76
2023/04/21 10:50:21;;;;;;;8.10;3.92;;;;;;;18.55;50.20;94367.22;5105502;28;20200;-76
2023/04/21 10:52:55;;;;;;;14.93;4.47;;;;;;;18.66;50.87;94360.84;5102906;28;20330;-77
2023/04/21 10:55:21;;;;;;;8.00;3.60;;;;;;;18.72;51.37;94373.88;5108241;28;20205;-76
2023/04/21 10:57:47;;;;;;;6.47;3.90;;;;;;;18.74;50.89;94349.59;5108381;28;20181;-76
2023/04/21 11:00:19;;;;;;;6.03;3.10;;;;;;;18.79;48.17;94368.22;5108277;28;20228;-76
2023/04/21 11:02:53;;;;;;;10.52;3.30;;;;;;;18.90;50.16;94363.66;5095164;28;20170;-76
2023/04/21 11:05:20;;;;;;;4.45;2.97;;;;;;;18.94;48.92;94360.16;5092495;28;20166;-76
2023/04/21 11:07:45;;;;;;;11.30;4.00;;;;;;;18.95;46.25;94359.06;5096980;28;20189;-75
2023/04/21 11:10:10;;;;;;;4.18;3.00;;;;;;;19.02;49.51;94356.94;5100624;28;20173;-75
2023/04/21 11:12:38;;;;;;;6.32;3.10;;;;;;;19.09;49.63;94333.41;5091573;28;20170;-75
2023/04/21 11:15:06;;;;;;;7.35;3.45;;;;;;;19.54;50.39;94356.34;5099273;28;21030;-73
2023/04/21 11:17:32;;;;;;;3.83;3.33;;;;;;;19.73;48.21;94343.09;5094604;28;20410;-75
2023/04/21 11:19:58;;;;;;;7.63;3.13;;;;;;;19.71;49.58;94326.56;5099970;28;20734;-75
2023/04/21 11:22:25;;;;;;;5.63;2.97;;;;;;;20.06;48.52;94364.75;5091067;28;20177;-76
2023/04/21 11:24:54;;;;;;;7.85;2.50;;;;;;;20.06;44.75;94362.88;5080672;28;20577;-75